sensor_id;sensor_type;location;lat;lon;timestamp;temperature;humidity
51476;DHT22;37554;50.362;7.568;2024-03-08T00:02:03;16.40;39.80
51476;DHT22;37554;50.362;7.568;2024-03-08T00:04:29;16.40;39.80
51476;DHT22;37554;50.362;7.568;2024-03-08T00:06:54;16.40;39.90
51476;DHT22;37554;50.362;7.568;2024-03-08T00:09:20;16.30;39.90
51476;DHT22;37554;50.362;7.568;2024-03-08T00:11:46;16.30;40.00
51476;DHT22;37554;50.362;7.568;2024-03-08T00:14:14;16.20;40.00
51476;DHT22;37554;50.362;7.568;2024-03-08T00:16:39;16.20;40.00
51476;DHT22;37554;50.362;7.568;2024-03-08T00:19:09;16.20;40.10
51476;DHT22;37554;50.362;7.568;2024-03-08T00:21:35;16.20;40.00
51476;DHT22;37554;50.362;7.568;2024-03-08T00:24:01;16.20;40.00
51476;DHT22;37554;50.362;7.568;2024-03-08T00:26:27;16.10;40.00
51476;DHT22;37554;50.362;7.568;2024-03-08T00:28:54;16.10;40.00
51476;DHT22;37554;50.362;7.568;2024-03-08T00:31:19;16.10;40.00
51476;DHT22;37554;50.362;7.568;2024-03-08T00:33:45;16.10;40.10
51476;DHT22;37554;50.362;7.568;2024-03-08T00:36:11;16.00;40.00
51476;DHT22;37554;50.362;7.568;2024-03-08T00:38:37;16.00;40.00
51476;DHT22;37554;50.362;7.568;2024-03-08T00:41:02;16.00;40.10
51476;DHT22;37554;50.362;7.568;2024-03-08T00:43:28;16.00;40.80
51476;DHT22;37554;50.362;7.568;2024-03-08T00:45:55;16.00;40.10
51476;DHT22;37554;50.362;7.568;2024-03-08T00:48:21;15.90;40.00
51476;DHT22;37554;50.362;7.568;2024-03-08T00:50:47;15.90;40.10
51476;DHT22;37554;50.362;7.568;2024-03-08T00:53:13;15.90;40.10
51476;DHT22;37554;50.362;7.568;2024-03-08T00:55:39;15.90;40.20
51476;DHT22;37554;50.362;7.568;2024-03-08T00:58:05;15.80;40.10
51476;DHT22;37554;50.362;7.568;2024-03-08T01:00:30;15.80;40.10
51476;DHT22;37554;50.362;7.568;2024-03-08T01:02:56;15.80;40.10
51476;DHT22;37554;50.362;7.568;2024-03-08T01:05:22;15.80;40.20
51476;DHT22;37554;50.362;7.568;2024-03-08T01:07:50;15.80;40.20
51476;DHT22;37554;50.362;7.568;2024-03-08T01:10:15;15.70;40.30
51476;DHT22;37554;50.362;7.568;2024-03-08T01:12:41;15.70;40.20
51476;DHT22;37554;50.362;7.568;2024-03-08T01:15:09;15.70;40.30
51476;DHT22;37554;50.362;7.568;2024-03-08T01:17:36;15.70;40.30
51476;DHT22;37554;50.362;7.568;2024-03-08T01:20:02;15.60;40.20
51476;DHT22;37554;50.362;7.568;2024-03-08T01:22:28;15.60;40.30
51476;DHT22;37554;50.362;7.568;2024-03-08T01:24:55;15.60;40.20
51476;DHT22;37554;50.362;7.568;2024-03-08T01:27:21;15.60;40.20
51476;DHT22;37554;50.362;7.568;2024-03-08T01:29:47;15.60;40.20
51476;DHT22;37554;50.362;7.568;2024-03-08T01:32:13;15.60;40.20
51476;DHT22;37554;50.362;7.568;2024-03-08T01:34:38;15.60;40.20
51476;DHT22;37554;50.362;7.568;2024-03-08T01:37:04;15.50;40.20
51476;DHT22;37554;50.362;7.568;2024-03-08T01:39:30;15.50;40.30
51476;DHT22;37554;50.362;7.568;2024-03-08T01:41:56;15.40;40.30
51476;DHT22;37554;50.362;7.568;2024-03-08T01:44:22;15.40;40.30
51476;DHT22;37554;50.362;7.568;2024-03-08T01:46:48;15.40;40.30
51476;DHT22;37554;50.362;7.568;2024-03-08T01:49:15;15.40;40.20
51476;DHT22;37554;50.362;7.568;2024-03-08T01:51:44;15.40;40.30
51476;DHT22;37554;50.362;7.568;2024-03-08T01:54:14;15.40;40.30
51476;DHT22;37554;50.362;7.568;2024-03-08T01:56:42;15.30;40.30
51476;DHT22;37554;50.362;7.568;2024-03-08T01:59:07;15.30;40.40
51476;DHT22;37554;50.362;7.568;2024-03-08T02:01:34;15.30;40.50
51476;DHT22;37554;50.362;7.568;2024-03-08T02:04:00;15.30;40.50
51476;DHT22;37554;50.362;7.568;2024-03-08T02:06:25;15.20;40.60
51476;DHT22;37554;50.362;7.568;2024-03-08T02:08:51;15.20;40.70
51476;DHT22;37554;50.362;7.568;2024-03-08T02:11:17;15.20;40.70
51476;DHT22;37554;50.362;7.568;2024-03-08T02:13:44;15.20;40.80
51476;DHT22;37554;50.362;7.568;2024-03-08T02:16:10;15.20;40.80
51476;DHT22;37554;50.362;7.568;2024-03-08T02:18:36;15.20;40.80
51476;DHT22;37554;50.362;7.568;2024-03-08T02:21:03;15.10;41.40
51476;DHT22;37554;50.362;7.568;2024-03-08T02:23:29;15.10;40.80
51476;DHT22;37554;50.362;7.568;2024-03-08T02:25:56;15.10;40.90
51476;DHT22;37554;50.362;7.568;2024-03-08T02:28:22;15.10;40.90
51476;DHT22;37554;50.362;7.568;2024-03-08T02:30:51;15.00;41.00
51476;DHT22;37554;50.362;7.568;2024-03-08T02:33:20;15.00;41.10
51476;DHT22;37554;50.362;7.568;2024-03-08T02:35:46;15.00;41.10
51476;DHT22;37554;50.362;7.568;2024-03-08T02:38:13;15.00;41.10
51476;DHT22;37554;50.362;7.568;2024-03-08T02:40:45;15.00;41.20
51476;DHT22;37554;50.362;7.568;2024-03-08T02:43:11;14.90;41.10
51476;DHT22;37554;50.362;7.568;2024-03-08T02:45:37;14.90;41.10
51476;DHT22;37554;50.362;7.568;2024-03-08T02:48:03;14.90;41.10
51476;DHT22;37554;50.362;7.568;2024-03-08T02:50:29;14.90;41.20
51476;DHT22;37554;50.362;7.568;2024-03-08T02:52:54;14.90;41.30
51476;DHT22;37554;50.362;7.568;2024-03-08T02:55:20;14.90;41.30
51476;DHT22;37554;50.362;7.568;2024-03-08T02:57:46;14.90;41.30
51476;DHT22;37554;50.362;7.568;2024-03-08T03:00:15;14.80;41.30
51476;DHT22;37554;50.362;7.568;2024-03-08T03:02:41;14.80;41.40
51476;DHT22;37554;50.362;7.568;2024-03-08T03:05:08;14.80;41.50
51476;DHT22;37554;50.362;7.568;2024-03-08T03:07:35;14.80;41.60
51476;DHT22;37554;50.362;7.568;2024-03-08T03:10:01;14.70;41.60
51476;DHT22;37554;50.362;7.568;2024-03-08T03:12:31;14.70;41.70
51476;DHT22;37554;50.362;7.568;2024-03-08T03:14:57;14.70;41.70
51476;DHT22;37554;50.362;7.568;2024-03-08T03:17:26;14.70;41.70
51476;DHT22;37554;50.362;7.568;2024-03-08T03:19:52;14.60;41.70
51476;DHT22;37554;50.362;7.568;2024-03-08T03:22:21;14.60;41.80
51476;DHT22;37554;50.362;7.568;2024-03-08T03:24:47;14.60;41.80
51476;DHT22;37554;50.362;7.568;2024-03-08T03:27:13;14.60;41.80
51476;DHT22;37554;50.362;7.568;2024-03-08T03:29:41;14.60;41.80
51476;DHT22;37554;50.362;7.568;2024-03-08T03:32:11;14.60;41.80
51476;DHT22;37554;50.362;7.568;2024-03-08T03:34:37;14.60;41.80
51476;DHT22;37554;50.362;7.568;2024-03-08T03:37:03;14.60;41.90
51476;DHT22;37554;50.362;7.568;2024-03-08T03:39:30;14.50;41.90
51476;DHT22;37554;50.362;7.568;2024-03-08T03:41:58;14.50;42.00
51476;DHT22;37554;50.362;7.568;2024-03-08T03:44:24;14.50;42.00
51476;DHT22;37554;50.362;7.568;2024-03-08T03:46:49;14.50;42.00
51476;DHT22;37554;50.362;7.568;2024-03-08T03:49:18;14.40;42.10
51476;DHT22;37554;50.362;7.568;2024-03-08T03:51:43;14.40;42.10
51476;DHT22;37554;50.362;7.568;2024-03-08T03:54:10;14.40;42.10
51476;DHT22;37554;50.362;7.568;2024-03-08T03:56:36;14.40;42.20
51476;DHT22;37554;50.362;7.568;2024-03-08T03:59:01;14.30;42.10
51476;DHT22;37554;50.362;7.568;2024-03-08T04:01:27;14.30;42.20
51476;DHT22;37554;50.362;7.568;2024-03-08T04:03:52;14.30;42.10
51476;DHT22;37554;50.362;7.568;2024-03-08T04:06:18;14.30;42.10
51476;DHT22;37554;50.362;7.568;2024-03-08T04:08:44;14.30;42.10
51476;DHT22;37554;50.362;7.568;2024-03-08T04:11:09;14.30;42.10
51476;DHT22;37554;50.362;7.568;2024-03-08T04:13:36;14.30;42.10
51476;DHT22;37554;50.362;7.568;2024-03-08T04:16:02;14.20;42.10
51476;DHT22;37554;50.362;7.568;2024-03-08T04:18:28;14.20;42.20
51476;DHT22;37554;50.362;7.568;2024-03-08T04:20:53;14.10;42.20
51476;DHT22;37554;50.362;7.568;2024-03-08T04:23:19;14.10;42.20
51476;DHT22;37554;50.362;7.568;2024-03-08T04:25:45;14.10;42.20
51476;DHT22;37554;50.362;7.568;2024-03-08T04:28:10;14.10;42.20
51476;DHT22;37554;50.362;7.568;2024-03-08T04:30:40;14.10;42.20
51476;DHT22;37554;50.362;7.568;2024-03-08T04:33:06;14.10;42.20
51476;DHT22;37554;50.362;7.568;2024-03-08T04:35:35;14.10;42.10
51476;DHT22;37554;50.362;7.568;2024-03-08T04:38:00;14.10;42.20
51476;DHT22;37554;50.362;7.568;2024-03-08T04:40:26;14.10;42.20
51476;DHT22;37554;50.362;7.568;2024-03-08T04:42:52;14.00;42.10
51476;DHT22;37554;50.362;7.568;2024-03-08T04:45:17;14.10;42.10
51476;DHT22;37554;50.362;7.568;2024-03-08T04:47:43;14.00;42.10
51476;DHT22;37554;50.362;7.568;2024-03-08T04:50:09;14.00;42.20
51476;DHT22;37554;50.362;7.568;2024-03-08T04:52:35;14.00;42.20
51476;DHT22;37554;50.362;7.568;2024-03-08T04:55:03;14.00;42.20
51476;DHT22;37554;50.362;7.568;2024-03-08T04:57:30;13.90;42.20
51476;DHT22;37554;50.362;7.568;2024-03-08T04:59:56;13.90;42.30
51476;DHT22;37554;50.362;7.568;2024-03-08T05:02:23;13.90;43.00
51476;DHT22;37554;50.362;7.568;2024-03-08T05:04:48;13.90;42.30
51476;DHT22;37554;50.362;7.568;2024-03-08T05:07:14;13.80;42.30
51476;DHT22;37554;50.362;7.568;2024-03-08T05:09:40;13.80;42.40
51476;DHT22;37554;50.362;7.568;2024-03-08T05:12:07;13.80;42.50
51476;DHT22;37554;50.362;7.568;2024-03-08T05:14:33;13.80;42.50
51476;DHT22;37554;50.362;7.568;2024-03-08T05:17:00;13.80;42.50
51476;DHT22;37554;50.362;7.568;2024-03-08T05:19:26;13.80;42.50
51476;DHT22;37554;50.362;7.568;2024-03-08T05:21:52;13.80;43.10
51476;DHT22;37554;50.362;7.568;2024-03-08T05:24:18;13.80;42.50
51476;DHT22;37554;50.362;7.568;2024-03-08T05:26:44;13.70;42.50
51476;DHT22;37554;50.362;7.568;2024-03-08T05:29:11;13.70;42.40
51476;DHT22;37554;50.362;7.568;2024-03-08T05:31:46;13.70;42.50
51476;DHT22;37554;50.362;7.568;2024-03-08T05:34:13;13.70;42.50
51476;DHT22;37554;50.362;7.568;2024-03-08T05:36:40;13.70;42.50
51476;DHT22;37554;50.362;7.568;2024-03-08T05:39:05;13.60;42.50
51476;DHT22;37554;50.362;7.568;2024-03-08T05:41:32;13.60;42.50
51476;DHT22;37554;50.362;7.568;2024-03-08T05:43:57;13.60;42.60
51476;DHT22;37554;50.362;7.568;2024-03-08T05:46:23;13.60;42.50
51476;DHT22;37554;50.362;7.568;2024-03-08T05:48:48;13.60;42.60
51476;DHT22;37554;50.362;7.568;2024-03-08T05:51:14;13.50;42.60
51476;DHT22;37554;50.362;7.568;2024-03-08T05:53:40;13.50;42.60
51476;DHT22;37554;50.362;7.568;2024-03-08T05:56:06;13.50;42.60
51476;DHT22;37554;50.362;7.568;2024-03-08T05:58:32;13.50;42.70
51476;DHT22;37554;50.362;7.568;2024-03-08T06:00:57;13.50;42.80
51476;DHT22;37554;50.362;7.568;2024-03-08T06:03:23;13.40;42.80
51476;DHT22;37554;50.362;7.568;2024-03-08T06:05:49;13.50;42.70
51476;DHT22;37554;50.362;7.568;2024-03-08T06:08:15;13.50;42.70
51476;DHT22;37554;50.362;7.568;2024-03-08T06:10:41;13.50;42.70
51476;DHT22;37554;50.362;7.568;2024-03-08T06:13:06;13.40;42.70
51476;DHT22;37554;50.362;7.568;2024-03-08T06:15:32;13.40;42.70
51476;DHT22;37554;50.362;7.568;2024-03-08T06:17:58;13.40;42.80
51476;DHT22;37554;50.362;7.568;2024-03-08T06:20:23;13.40;42.80
51476;DHT22;37554;50.362;7.568;2024-03-08T06:22:52;13.40;42.80
51476;DHT22;37554;50.362;7.568;2024-03-08T06:25:17;13.40;42.80
51476;DHT22;37554;50.362;7.568;2024-03-08T06:27:43;13.40;42.80
51476;DHT22;37554;50.362;7.568;2024-03-08T06:30:11;13.40;43.00
51476;DHT22;37554;50.362;7.568;2024-03-08T06:32:37;13.30;42.90
51476;DHT22;37554;50.362;7.568;2024-03-08T06:35:06;13.40;42.90
51476;DHT22;37554;50.362;7.568;2024-03-08T06:37:35;13.40;42.90
51476;DHT22;37554;50.362;7.568;2024-03-08T06:40:01;13.40;42.90
51476;DHT22;37554;50.362;7.568;2024-03-08T06:42:27;13.40;42.90
51476;DHT22;37554;50.362;7.568;2024-03-08T06:44:53;13.40;42.90
51476;DHT22;37554;50.362;7.568;2024-03-08T06:47:21;13.40;42.90
51476;DHT22;37554;50.362;7.568;2024-03-08T06:49:48;13.40;43.00
51476;DHT22;37554;50.362;7.568;2024-03-08T06:52:15;13.50;43.00
51476;DHT22;37554;50.362;7.568;2024-03-08T06:54:40;13.50;43.00
51476;DHT22;37554;50.362;7.568;2024-03-08T06:57:06;13.50;43.00
51476;DHT22;37554;50.362;7.568;2024-03-08T06:59:32;13.50;43.10
51476;DHT22;37554;50.362;7.568;2024-03-08T07:01:58;13.60;43.00
51476;DHT22;37554;50.362;7.568;2024-03-08T07:04:25;13.60;43.10
51476;DHT22;37554;50.362;7.568;2024-03-08T07:06:55;13.60;43.00
51476;DHT22;37554;50.362;7.568;2024-03-08T07:09:21;13.60;43.10
51476;DHT22;37554;50.362;7.568;2024-03-08T07:11:46;13.60;43.00
51476;DHT22;37554;50.362;7.568;2024-03-08T07:14:12;13.60;43.00
51476;DHT22;37554;50.362;7.568;2024-03-08T07:16:40;13.60;43.10
51476;DHT22;37554;50.362;7.568;2024-03-08T07:19:07;13.70;43.10
51476;DHT22;37554;50.362;7.568;2024-03-08T07:21:32;13.70;43.00
51476;DHT22;37554;50.362;7.568;2024-03-08T07:23:58;13.70;43.00
51476;DHT22;37554;50.362;7.568;2024-03-08T07:26:27;13.80;43.10
51476;DHT22;37554;50.362;7.568;2024-03-08T07:28:53;13.80;43.10
51476;DHT22;37554;50.362;7.568;2024-03-08T07:31:20;13.80;43.00
51476;DHT22;37554;50.362;7.568;2024-03-08T07:34:03;13.80;43.00
51476;DHT22;37554;50.362;7.568;2024-03-08T07:36:35;13.90;43.00
51476;DHT22;37554;50.362;7.568;2024-03-08T07:39:01;13.90;43.00
51476;DHT22;37554;50.362;7.568;2024-03-08T07:41:27;13.90;43.00
51476;DHT22;37554;50.362;7.568;2024-03-08T07:43:55;14.00;43.00
51476;DHT22;37554;50.362;7.568;2024-03-08T07:46:21;14.10;43.00
51476;DHT22;37554;50.362;7.568;2024-03-08T07:48:46;14.10;42.90
51476;DHT22;37554;50.362;7.568;2024-03-08T07:51:16;14.20;42.90
51476;DHT22;37554;50.362;7.568;2024-03-08T07:53:43;14.30;42.80
51476;DHT22;37554;50.362;7.568;2024-03-08T07:56:09;14.40;42.80
51476;DHT22;37554;50.362;7.568;2024-03-08T07:58:38;14.50;42.80
51476;DHT22;37554;50.362;7.568;2024-03-08T08:01:06;14.50;42.60
51476;DHT22;37554;50.362;7.568;2024-03-08T08:03:31;14.60;42.60
51476;DHT22;37554;50.362;7.568;2024-03-08T08:05:57;14.70;42.50
51476;DHT22;37554;50.362;7.568;2024-03-08T08:08:23;14.80;42.50
51476;DHT22;37554;50.362;7.568;2024-03-08T08:10:48;14.90;42.40
51476;DHT22;37554;50.362;7.568;2024-03-08T08:13:14;15.00;42.30
51476;DHT22;37554;50.362;7.568;2024-03-08T08:15:41;15.20;42.20
51476;DHT22;37554;50.362;7.568;2024-03-08T08:18:06;15.30;42.00
51476;DHT22;37554;50.362;7.568;2024-03-08T08:20:35;15.50;41.90
51476;DHT22;37554;50.362;7.568;2024-03-08T08:23:01;15.70;41.70
51476;DHT22;37554;50.362;7.568;2024-03-08T08:25:26;15.80;41.50
51476;DHT22;37554;50.362;7.568;2024-03-08T08:27:52;16.10;41.40
51476;DHT22;37554;50.362;7.568;2024-03-08T08:30:19;16.20;41.10
51476;DHT22;37554;50.362;7.568;2024-03-08T08:32:45;16.50;41.00
51476;DHT22;37554;50.362;7.568;2024-03-08T08:35:12;16.70;40.80
51476;DHT22;37554;50.362;7.568;2024-03-08T08:37:39;16.90;40.40
51476;DHT22;37554;50.362;7.568;2024-03-08T08:40:05;17.10;40.20
51476;DHT22;37554;50.362;7.568;2024-03-08T08:42:35;17.30;39.90
51476;DHT22;37554;50.362;7.568;2024-03-08T08:45:01;17.60;39.70
51476;DHT22;37554;50.362;7.568;2024-03-08T08:47:27;17.80;39.30
51476;DHT22;37554;50.362;7.568;2024-03-08T08:49:53;18.10;39.00
51476;DHT22;37554;50.362;7.568;2024-03-08T08:52:19;18.30;38.70
51476;DHT22;37554;50.362;7.568;2024-03-08T08:54:45;18.60;38.40
51476;DHT22;37554;50.362;7.568;2024-03-08T08:57:10;18.80;38.30
51476;DHT22;37554;50.362;7.568;2024-03-08T08:59:36;19.10;37.80
51476;DHT22;37554;50.362;7.568;2024-03-08T09:02:05;19.40;37.50
51476;DHT22;37554;50.362;7.568;2024-03-08T09:04:31;19.60;37.30
51476;DHT22;37554;50.362;7.568;2024-03-08T09:06:56;19.80;37.00
51476;DHT22;37554;50.362;7.568;2024-03-08T09:09:23;20.00;36.80
51476;DHT22;37554;50.362;7.568;2024-03-08T09:11:48;20.30;36.50
51476;DHT22;37554;50.362;7.568;2024-03-08T09:14:15;20.50;36.30
51476;DHT22;37554;50.362;7.568;2024-03-08T09:16:40;20.70;35.90
51476;DHT22;37554;50.362;7.568;2024-03-08T09:19:06;21.00;35.80
51476;DHT22;37554;50.362;7.568;2024-03-08T09:21:33;21.20;35.70
51476;DHT22;37554;50.362;7.568;2024-03-08T09:24:00;21.40;35.50
51476;DHT22;37554;50.362;7.568;2024-03-08T09:26:26;21.60;35.10
51476;DHT22;37554;50.362;7.568;2024-03-08T09:28:52;21.90;34.90
51476;DHT22;37554;50.362;7.568;2024-03-08T09:31:18;22.00;34.80
51476;DHT22;37554;50.362;7.568;2024-03-08T09:33:43;22.30;34.60
51476;DHT22;37554;50.362;7.568;2024-03-08T09:36:09;22.50;34.40
51476;DHT22;37554;50.362;7.568;2024-03-08T09:38:34;22.70;34.20
51476;DHT22;37554;50.362;7.568;2024-03-08T09:41:01;22.90;34.10
51476;DHT22;37554;50.362;7.568;2024-03-08T09:43:29;23.20;33.90
51476;DHT22;37554;50.362;7.568;2024-03-08T09:45:57;23.40;33.60
51476;DHT22;37554;50.362;7.568;2024-03-08T09:48:23;23.60;33.40
51476;DHT22;37554;50.362;7.568;2024-03-08T09:50:48;23.80;33.20
51476;DHT22;37554;50.362;7.568;2024-03-08T09:53:14;24.10;33.00
51476;DHT22;37554;50.362;7.568;2024-03-08T09:55:40;24.40;32.80
51476;DHT22;37554;50.362;7.568;2024-03-08T09:58:12;24.60;32.50
51476;DHT22;37554;50.362;7.568;2024-03-08T10:00:54;24.80;32.30
51476;DHT22;37554;50.362;7.568;2024-03-08T10:03:20;25.10;32.20
51476;DHT22;37554;50.362;7.568;2024-03-08T10:05:46;25.30;32.00
51476;DHT22;37554;50.362;7.568;2024-03-08T10:08:12;25.50;31.90
51476;DHT22;37554;50.362;7.568;2024-03-08T10:10:39;25.70;31.80
51476;DHT22;37554;50.362;7.568;2024-03-08T10:13:06;26.00;31.60
51476;DHT22;37554;50.362;7.568;2024-03-08T10:15:32;26.20;31.40
51476;DHT22;37554;50.362;7.568;2024-03-08T10:17:58;26.40;31.20
51476;DHT22;37554;50.362;7.568;2024-03-08T10:20:25;26.60;31.10
51476;DHT22;37554;50.362;7.568;2024-03-08T10:22:52;26.90;30.90
51476;DHT22;37554;50.362;7.568;2024-03-08T10:25:19;27.20;30.80
51476;DHT22;37554;50.362;7.568;2024-03-08T10:27:45;27.40;30.50
51476;DHT22;37554;50.362;7.568;2024-03-08T10:30:14;27.60;30.30
51476;DHT22;37554;50.362;7.568;2024-03-08T10:32:40;27.90;30.20
51476;DHT22;37554;50.362;7.568;2024-03-08T10:35:10;28.10;30.00
51476;DHT22;37554;50.362;7.568;2024-03-08T10:37:47;28.30;30.00
51476;DHT22;37554;50.362;7.568;2024-03-08T10:40:18;28.60;29.80
51476;DHT22;37554;50.362;7.568;2024-03-08T10:42:53;28.80;29.70
51476;DHT22;37554;50.362;7.568;2024-03-08T10:45:35;29.00;29.40
51476;DHT22;37554;50.362;7.568;2024-03-08T10:50:49;29.60;29.10
51476;DHT22;37554;50.362;7.568;2024-03-08T10:53:18;29.80;29.20
51476;DHT22;37554;50.362;7.568;2024-03-08T10:55:44;30.10;29.00
51476;DHT22;37554;50.362;7.568;2024-03-08T10:58:10;30.30;29.00
51476;DHT22;37554;50.362;7.568;2024-03-08T11:00:36;30.50;28.80
51476;DHT22;37554;50.362;7.568;2024-03-08T11:03:03;30.80;28.70
51476;DHT22;37554;50.362;7.568;2024-03-08T11:05:38;31.00;28.60
51476;DHT22;37554;50.362;7.568;2024-03-08T11:08:20;31.20;28.20
51476;DHT22;37554;50.362;7.568;2024-03-08T11:10:53;31.50;27.80
51476;DHT22;37554;50.362;7.568;2024-03-08T11:13:37;31.80;27.90
51476;DHT22;37554;50.362;7.568;2024-03-08T11:16:10;32.10;27.60
51476;DHT22;37554;50.362;7.568;2024-03-08T11:18:37;32.30;27.70
51476;DHT22;37554;50.362;7.568;2024-03-08T11:21:08;32.60;27.60
51476;DHT22;37554;50.362;7.568;2024-03-08T11:23:38;32.90;27.40
51476;DHT22;37554;50.362;7.568;2024-03-08T11:26:20;33.30;27.30
51476;DHT22;37554;50.362;7.568;2024-03-08T11:28:46;33.60;26.80
51476;DHT22;37554;50.362;7.568;2024-03-08T11:33:40;34.40;26.90
51476;DHT22;37554;50.362;7.568;2024-03-08T11:36:22;34.80;26.70
51476;DHT22;37554;50.362;7.568;2024-03-08T11:38:50;35.30;26.30
51476;DHT22;37554;50.362;7.568;2024-03-08T11:41:19;35.70;26.50
51476;DHT22;37554;50.362;7.568;2024-03-08T11:43:46;36.10;26.30
51476;DHT22;37554;50.362;7.568;2024-03-08T11:46:13;36.60;26.20
51476;DHT22;37554;50.362;7.568;2024-03-08T11:48:44;37.00;26.00
51476;DHT22;37554;50.362;7.568;2024-03-08T11:51:13;37.40;25.80
51476;DHT22;37554;50.362;7.568;2024-03-08T11:53:40;37.80;25.60
51476;DHT22;37554;50.362;7.568;2024-03-08T11:56:10;38.10;25.60
51476;DHT22;37554;50.362;7.568;2024-03-08T11:58:37;38.40;25.40
51476;DHT22;37554;50.362;7.568;2024-03-08T12:01:07;38.70;25.40
51476;DHT22;37554;50.362;7.568;2024-03-08T12:03:34;39.00;25.30
51476;DHT22;37554;50.362;7.568;2024-03-08T12:06:01;39.10;25.40
51476;DHT22;37554;50.362;7.568;2024-03-08T12:08:30;39.10;25.30
51476;DHT22;37554;50.362;7.568;2024-03-08T12:10:56;39.10;25.30
51476;DHT22;37554;50.362;7.568;2024-03-08T12:13:32;39.00;25.40
51476;DHT22;37554;50.362;7.568;2024-03-08T12:15:59;38.80;25.10
51476;DHT22;37554;50.362;7.568;2024-03-08T12:18:28;38.70;25.50
51476;DHT22;37554;50.362;7.568;2024-03-08T12:21:08;38.50;25.60
51476;DHT22;37554;50.362;7.568;2024-03-08T12:23:36;38.40;25.40
51476;DHT22;37554;50.362;7.568;2024-03-08T12:26:15;38.20;25.70
51476;DHT22;37554;50.362;7.568;2024-03-08T12:28:42;38.00;25.30
51476;DHT22;37554;50.362;7.568;2024-03-08T12:31:11;37.90;25.70
51476;DHT22;37554;50.362;7.568;2024-03-08T12:33:53;37.80;25.70
51476;DHT22;37554;50.362;7.568;2024-03-08T12:36:19;37.70;25.50
51476;DHT22;37554;50.362;7.568;2024-03-08T12:38:46;37.60;25.90
51476;DHT22;37554;50.362;7.568;2024-03-08T12:41:18;37.60;26.00
51476;DHT22;37554;50.362;7.568;2024-03-08T12:43:45;37.50;25.90
51476;DHT22;37554;50.362;7.568;2024-03-08T12:46:22;37.50;26.00
51476;DHT22;37554;50.362;7.568;2024-03-08T12:48:52;37.40;25.80
51476;DHT22;37554;50.362;7.568;2024-03-08T12:51:20;37.40;26.00
51476;DHT22;37554;50.362;7.568;2024-03-08T12:53:46;37.50;26.00
51476;DHT22;37554;50.362;7.568;2024-03-08T12:56:12;37.50;26.10
51476;DHT22;37554;50.362;7.568;2024-03-08T12:58:39;37.60;26.00
51476;DHT22;37554;50.362;7.568;2024-03-08T13:01:06;37.60;26.00
51476;DHT22;37554;50.362;7.568;2024-03-08T13:03:35;37.70;26.10
51476;DHT22;37554;50.362;7.568;2024-03-08T13:06:04;37.90;26.10
51476;DHT22;37554;50.362;7.568;2024-03-08T13:08:37;38.00;26.00
51476;DHT22;37554;50.362;7.568;2024-03-08T13:11:09;38.10;26.00
51476;DHT22;37554;50.362;7.568;2024-03-08T13:13:37;38.20;26.00
51476;DHT22;37554;50.362;7.568;2024-03-08T13:16:05;38.30;26.00
51476;DHT22;37554;50.362;7.568;2024-03-08T13:18:35;38.40;26.00
51476;DHT22;37554;50.362;7.568;2024-03-08T13:21:01;38.30;25.90
51476;DHT22;37554;50.362;7.568;2024-03-08T13:23:33;38.30;26.00
51476;DHT22;37554;50.362;7.568;2024-03-08T13:26:11;38.30;26.00
51476;DHT22;37554;50.362;7.568;2024-03-08T13:28:49;38.30;26.00
51476;DHT22;37554;50.362;7.568;2024-03-08T13:31:20;38.20;26.00
51476;DHT22;37554;50.362;7.568;2024-03-08T13:33:45;38.20;26.10
51476;DHT22;37554;50.362;7.568;2024-03-08T13:36:12;38.20;26.20
51476;DHT22;37554;50.362;7.568;2024-03-08T13:38:45;38.10;26.20
51476;DHT22;37554;50.362;7.568;2024-03-08T13:41:11;38.00;26.20
51476;DHT22;37554;50.362;7.568;2024-03-08T13:43:48;38.00;26.30
51476;DHT22;37554;50.362;7.568;2024-03-08T13:46:18;38.00;26.30
51476;DHT22;37554;50.362;7.568;2024-03-08T13:48:44;37.90;26.30
51476;DHT22;37554;50.362;7.568;2024-03-08T13:51:09;37.90;26.30
51476;DHT22;37554;50.362;7.568;2024-03-08T13:53:37;37.80;26.30
51476;DHT22;37554;50.362;7.568;2024-03-08T13:56:03;37.80;26.30
51476;DHT22;37554;50.362;7.568;2024-03-08T13:58:29;37.80;26.40
51476;DHT22;37554;50.362;7.568;2024-03-08T14:00:55;37.70;26.80
51476;DHT22;37554;50.362;7.568;2024-03-08T14:03:21;37.70;26.20
51476;DHT22;37554;50.362;7.568;2024-03-08T14:05:47;37.60;26.30
51476;DHT22;37554;50.362;7.568;2024-03-08T14:08:12;37.60;26.30
51476;DHT22;37554;50.362;7.568;2024-03-08T14:10:39;37.50;26.40
51476;DHT22;37554;50.362;7.568;2024-03-08T14:13:05;37.40;26.40
51476;DHT22;37554;50.362;7.568;2024-03-08T14:15:32;37.40;26.50
51476;DHT22;37554;50.362;7.568;2024-03-08T14:17:58;37.40;26.50
51476;DHT22;37554;50.362;7.568;2024-03-08T14:20:25;37.30;26.40
51476;DHT22;37554;50.362;7.568;2024-03-08T14:22:54;37.30;26.40
51476;DHT22;37554;50.362;7.568;2024-03-08T14:25:23;37.20;26.30
51476;DHT22;37554;50.362;7.568;2024-03-08T14:27:50;37.10;26.30
51476;DHT22;37554;50.362;7.568;2024-03-08T14:30:22;37.10;26.30
51476;DHT22;37554;50.362;7.568;2024-03-08T14:33:14;37.00;26.30
51476;DHT22;37554;50.362;7.568;2024-03-08T14:35:40;36.90;26.30
51476;DHT22;37554;50.362;7.568;2024-03-08T14:38:06;36.80;26.30
51476;DHT22;37554;50.362;7.568;2024-03-08T14:40:37;36.80;26.30
51476;DHT22;37554;50.362;7.568;2024-03-08T14:43:03;36.70;26.30
51476;DHT22;37554;50.362;7.568;2024-03-08T14:45:29;36.60;26.30
51476;DHT22;37554;50.362;7.568;2024-03-08T14:47:56;36.60;26.40
51476;DHT22;37554;50.362;7.568;2024-03-08T14:50:23;36.50;26.30
51476;DHT22;37554;50.362;7.568;2024-03-08T14:52:50;36.40;26.30
51476;DHT22;37554;50.362;7.568;2024-03-08T14:55:16;36.30;26.30
51476;DHT22;37554;50.362;7.568;2024-03-08T14:57:45;36.20;26.20
51476;DHT22;37554;50.362;7.568;2024-03-08T15:00:14;36.10;26.30
51476;DHT22;37554;50.362;7.568;2024-03-08T15:02:54;36.00;26.30
51476;DHT22;37554;50.362;7.568;2024-03-08T15:05:20;35.90;26.30
51476;DHT22;37554;50.362;7.568;2024-03-08T15:07:47;35.90;26.30
51476;DHT22;37554;50.362;7.568;2024-03-08T15:10:14;35.80;26.40
51476;DHT22;37554;50.362;7.568;2024-03-08T15:12:42;35.70;26.40
51476;DHT22;37554;50.362;7.568;2024-03-08T15:15:12;35.50;26.40
51476;DHT22;37554;50.362;7.568;2024-03-08T15:17:39;35.50;26.50
51476;DHT22;37554;50.362;7.568;2024-03-08T15:20:06;35.40;26.60
51476;DHT22;37554;50.362;7.568;2024-03-08T15:22:46;35.20;26.50
51476;DHT22;37554;50.362;7.568;2024-03-08T15:25:12;35.10;26.40
51476;DHT22;37554;50.362;7.568;2024-03-08T15:27:42;35.00;26.50
51476;DHT22;37554;50.362;7.568;2024-03-08T15:30:08;34.90;26.60
51476;DHT22;37554;50.362;7.568;2024-03-08T15:32:39;34.70;26.70
51476;DHT22;37554;50.362;7.568;2024-03-08T15:35:09;34.60;26.70
51476;DHT22;37554;50.362;7.568;2024-03-08T15:37:44;34.50;26.60